createdAt,value
2023-05-24T00:00:43.668Z,13.2
2023-05-24T00:01:51.984Z,11.2
2023-05-24T00:03:00.380Z,11.2
2023-05-24T00:04:08.708Z,11.2
2023-05-24T00:05:17.191Z,8.5
2023-05-24T00:06:25.517Z,8.5
2023-05-24T00:07:33.860Z,8.5
2023-05-24T00:08:42.419Z,12
2023-05-24T00:09:50.772Z,12
2023-05-24T00:10:59.087Z,12
2023-05-24T00:12:07.640Z,14
2023-05-24T00:13:15.947Z,14
2023-05-24T00:14:24.300Z,14
2023-05-24T00:15:32.833Z,9.5
2023-05-24T00:16:41.204Z,9.5
2023-05-24T00:17:49.501Z,9.5
2023-05-24T00:18:58.034Z,11.5
2023-05-24T00:20:07.312Z,11.5
2023-05-24T00:21:14.712Z,11.5
2023-05-24T00:22:23.246Z,11.6
2023-05-24T00:23:31.581Z,11.6
2023-05-24T00:24:39.933Z,11.6
2023-05-24T00:25:48.500Z,10
2023-05-24T00:26:56.840Z,10
2023-05-24T00:28:05.159Z,10
2023-05-24T00:29:13.699Z,10.7
2023-05-24T00:30:22.058Z,10.7
2023-05-24T00:31:30.395Z,10.7
2023-05-24T00:32:38.967Z,12.3
2023-05-24T00:33:47.306Z,12.3
2023-05-24T00:34:55.622Z,12.3
2023-05-24T00:36:04.176Z,9.6
2023-05-24T00:37:12.523Z,9.6
2023-05-24T00:38:20.888Z,9.6
2023-05-24T00:39:29.435Z,11.3
2023-05-24T00:40:37.765Z,11.3
2023-05-24T00:41:46.100Z,11.3
2023-05-24T00:42:54.652Z,11.1
2023-05-24T00:44:02.983Z,11.1
2023-05-24T00:45:11.312Z,11.1
2023-05-24T00:46:19.870Z,12.8
2023-05-24T00:47:28.220Z,12.8
2023-05-24T00:48:36.560Z,12.8
2023-05-24T00:49:45.087Z,12.7
2023-05-24T00:50:53.411Z,12.7
2023-05-24T00:52:01.757Z,12.7
2023-05-24T00:53:10.324Z,13.1
2023-05-24T00:54:18.653Z,13.1
2023-05-24T00:55:26.985Z,13.1
2023-05-24T00:56:35.514Z,9.7
2023-05-24T00:57:43.852Z,9.7
2023-05-24T00:58:52.176Z,9.7
2023-05-24T01:00:00.734Z,10.4
2023-05-24T01:01:09.052Z,10.4
2023-05-24T01:02:17.436Z,10.4
2023-05-24T01:03:25.975Z,11.7
2023-05-24T01:04:34.301Z,11.7
2023-05-24T01:05:42.628Z,11.7
2023-05-24T01:06:51.202Z,11.5
2023-05-24T01:07:59.531Z,11.5
2023-05-24T01:09:07.850Z,11.5
2023-05-24T01:10:16.409Z,15
2023-05-24T01:11:24.763Z,15
2023-05-24T01:12:33.099Z,15
2023-05-24T01:13:41.629Z,12.7
2023-05-24T01:14:49.971Z,12.7
2023-05-24T01:15:58.310Z,12.7
2023-05-24T01:17:06.827Z,11.3
2023-05-24T01:18:15.159Z,11.3
2023-05-24T01:19:23.488Z,11.3
2023-05-24T01:20:32.100Z,10.2
2023-05-24T01:21:40.398Z,10.2
2023-05-24T01:22:48.739Z,10.2
2023-05-24T01:23:57.272Z,13
2023-05-24T01:25:05.630Z,13
2023-05-24T01:26:13.965Z,13
2023-05-24T01:27:22.498Z,11.7
2023-05-24T01:28:30.831Z,11.7
2023-05-24T01:29:39.179Z,11.7
2023-05-24T01:30:47.713Z,14.4
2023-05-24T01:31:56.064Z,14.4
2023-05-24T01:33:04.424Z,14.4
2023-05-24T01:34:12.891Z,12.7
2023-05-24T01:35:21.250Z,12.7
2023-05-24T01:36:29.618Z,12.7
2023-05-24T01:37:38.113Z,13.2
2023-05-24T01:38:46.457Z,13.2
2023-05-24T01:39:54.796Z,13.2
2023-05-24T01:41:03.328Z,13.2
2023-05-24T01:42:11.661Z,13.2
2023-05-24T01:43:19.988Z,13.2
2023-05-24T01:44:28.522Z,11.5
2023-05-24T01:45:36.847Z,11.5
2023-05-24T01:46:45.189Z,11.5
2023-05-24T01:47:53.758Z,11.5
2023-05-24T01:49:02.070Z,11.5
2023-05-24T01:50:10.444Z,11.5
2023-05-24T01:51:18.976Z,11.5
2023-05-24T01:52:27.350Z,11.5
2023-05-24T01:53:35.640Z,11.5
2023-05-24T01:54:44.189Z,12.1
2023-05-24T01:55:52.518Z,12.1
2023-05-24T01:57:00.862Z,12.1
2023-05-24T01:58:09.407Z,7.4
2023-05-24T01:59:17.727Z,7.4
2023-05-24T02:00:26.062Z,7.4
2023-05-24T02:01:34.689Z,11.7
2023-05-24T02:02:43.017Z,11.7
2023-05-24T02:03:51.265Z,11.7
2023-05-24T02:04:59.807Z,11.8
2023-05-24T02:06:08.136Z,11.8
2023-05-24T02:07:16.465Z,11.8
2023-05-24T02:08:25.024Z,10.9
2023-05-24T02:09:33.334Z,10.9
2023-05-24T02:10:41.900Z,10.9
2023-05-24T02:11:50.207Z,13.4
2023-05-24T02:12:58.554Z,13.4
2023-05-24T02:14:06.896Z,13.4
2023-05-24T02:15:15.423Z,10.8
2023-05-24T02:16:23.829Z,10.8
2023-05-24T02:17:32.126Z,10.8
2023-05-24T02:18:40.640Z,9.8
2023-05-24T02:19:49.017Z,9.8
2023-05-24T02:20:57.305Z,9.8
2023-05-24T02:22:05.852Z,9.4
2023-05-24T02:23:14.174Z,9.4
2023-05-24T02:24:22.534Z,9.4
2023-05-24T02:25:31.052Z,14.6
2023-05-24T02:26:39.384Z,14.6
2023-05-24T02:27:47.715Z,14.6
2023-05-24T02:28:56.266Z,12.8
2023-05-24T02:30:04.585Z,12.8
2023-05-24T02:31:12.964Z,12.8
2023-05-24T02:32:21.466Z,13.6
2023-05-24T02:33:29.826Z,13.6
2023-05-24T02:34:38.141Z,13.6
2023-05-24T02:35:46.686Z,12.9
2023-05-24T02:36:55.019Z,12.9
2023-05-24T02:38:03.340Z,12.9
2023-05-24T02:39:11.889Z,11.5
2023-05-24T02:40:20.249Z,11.5
2023-05-24T02:41:28.556Z,11.5
2023-05-24T02:42:37.083Z,12.7
2023-05-24T02:43:45.426Z,12.7
2023-05-24T02:44:53.789Z,12.7
2023-05-24T02:46:02.403Z,9.8
2023-05-24T02:47:10.658Z,9.8
2023-05-24T02:48:18.979Z,9.8
2023-05-24T02:49:27.546Z,10.1
2023-05-24T02:50:35.864Z,10.1
2023-05-24T02:51:44.196Z,10.1
2023-05-24T02:52:52.727Z,12.2
2023-05-24T02:54:01.116Z,12.2
2023-05-24T02:55:09.424Z,12.2
2023-05-24T02:56:17.976Z,12.9
2023-05-24T02:57:26.293Z,12.9
2023-05-24T02:58:34.620Z,12.9
2023-05-24T02:59:43.158Z,12.1
2023-05-24T03:00:51.492Z,12.1
2023-05-24T03:01:59.897Z,12.1
2023-05-24T03:03:08.439Z,12.6
2023-05-24T03:04:16.715Z,12.6
2023-05-24T03:05:25.036Z,12.6
2023-05-24T03:06:33.587Z,11.6
2023-05-24T03:07:41.952Z,11.6
2023-05-24T03:08:50.317Z,11.6
2023-05-24T03:09:58.869Z,12.3
2023-05-24T03:11:07.181Z,12.3
2023-05-24T03:12:15.550Z,12.3
2023-05-24T03:13:24.082Z,10.1
2023-05-24T03:14:32.430Z,10.1
2023-05-24T03:15:40.757Z,10.1
2023-05-24T03:16:49.325Z,11.2
2023-05-24T03:17:57.726Z,11.2
2023-05-24T03:19:07.743Z,11.2
2023-05-24T03:20:14.587Z,10.6
2023-05-24T03:21:22.891Z,10.6
2023-05-24T03:22:31.233Z,10.6
2023-05-24T03:23:39.755Z,11.8
2023-05-24T03:24:48.096Z,11.8
2023-05-24T03:25:56.429Z,11.8
2023-05-24T03:27:04.979Z,12.2
2023-05-24T03:28:13.321Z,12.2
2023-05-24T03:29:21.651Z,12.2
2023-05-24T03:30:30.176Z,9.1
2023-05-24T03:31:38.552Z,9.1
2023-05-24T03:32:46.918Z,9.1
2023-05-24T03:33:55.416Z,10.9
2023-05-24T03:35:03.741Z,10.9
2023-05-24T03:36:12.102Z,10.9
2023-05-24T03:37:20.644Z,13.2
2023-05-24T03:38:28.971Z,13.2
2023-05-24T03:39:37.322Z,13.2
2023-05-24T03:40:45.869Z,10.5
2023-05-24T03:41:54.223Z,10.5
2023-05-24T03:43:04.438Z,10.5
2023-05-24T03:44:11.104Z,9.2
2023-05-24T03:45:27.270Z,9.2
2023-05-24T03:46:27.796Z,9.2
2023-05-24T03:47:36.327Z,12.2
2023-05-24T03:48:44.645Z,12.2
2023-05-24T03:49:52.988Z,12.2
2023-05-24T03:51:01.533Z,11.3
2023-05-24T03:52:09.885Z,11.3
2023-05-24T03:53:18.206Z,11.3
2023-05-24T03:54:26.757Z,12.7
2023-05-24T03:55:35.132Z,12.7
2023-05-24T03:56:43.481Z,12.7
2023-05-24T03:57:52.034Z,9.6
2023-05-24T03:59:00.377Z,9.6
2023-05-24T04:00:08.774Z,9.6
2023-05-24T04:01:29.565Z,10.8
2023-05-24T04:02:25.691Z,10.8
2023-05-24T04:03:34.169Z,10.8
2023-05-24T04:04:42.506Z,9.2
2023-05-24T04:05:50.824Z,9.2
2023-05-24T04:06:59.174Z,9.2
2023-05-24T04:08:07.740Z,11.3
2023-05-24T04:09:16.058Z,11.3
2023-05-24T04:10:24.402Z,11.3
2023-05-24T04:11:32.954Z,8.8
2023-05-24T04:12:41.290Z,8.8
2023-05-24T04:13:49.633Z,8.8
2023-05-24T04:14:58.163Z,10.1
2023-05-24T04:16:06.529Z,10.1
2023-05-24T04:17:14.874Z,10.1
2023-05-24T04:18:23.436Z,14.3
2023-05-24T04:19:31.717Z,14.3
2023-05-24T04:20:40.120Z,14.3
2023-05-24T04:21:48.585Z,11.1
2023-05-24T04:22:56.966Z,11.1
2023-05-24T04:24:05.276Z,11.1
2023-05-24T04:25:13.849Z,11.4
2023-05-24T04:26:22.147Z,11.4
2023-05-24T04:27:30.512Z,11.4
2023-05-24T04:28:39.045Z,11.9
2023-05-24T04:29:47.386Z,11.9
2023-05-24T04:30:55.751Z,11.9
2023-05-24T04:32:04.306Z,8.8
2023-05-24T04:33:12.666Z,8.8
2023-05-24T04:34:20.923Z,8.8
2023-05-24T04:35:29.478Z,9.2
2023-05-24T04:36:37.815Z,9.2
2023-05-24T04:37:46.163Z,9.2
2023-05-24T04:38:54.686Z,12.9
2023-05-24T04:40:03.341Z,12.9
2023-05-24T04:41:11.698Z,12.9
2023-05-24T04:42:20.251Z,9.5
2023-05-24T04:43:28.606Z,9.5
2023-05-24T04:44:36.924Z,9.5
2023-05-24T04:45:45.493Z,10.6
2023-05-24T04:46:53.867Z,10.6
2023-05-24T04:48:02.252Z,10.6
2023-05-24T04:49:10.725Z,10.9
2023-05-24T04:50:19.058Z,10.9
2023-05-24T04:51:27.414Z,10.9
2023-05-24T04:52:35.973Z,11.1
2023-05-24T04:53:44.306Z,11.1
2023-05-24T04:54:52.642Z,11.1
2023-05-24T04:56:01.233Z,11.8
2023-05-24T04:57:09.564Z,11.8
2023-05-24T04:58:17.980Z,11.8
2023-05-24T04:59:26.524Z,10.6
2023-05-24T05:00:35.081Z,10.6
2023-05-24T05:01:43.446Z,10.6
2023-05-24T05:02:52.024Z,11.3
2023-05-24T05:04:00.414Z,11.3
2023-05-24T05:05:08.646Z,11.3
2023-05-24T05:06:17.192Z,13
2023-05-24T05:07:25.524Z,13
2023-05-24T05:08:33.864Z,13
2023-05-24T05:09:42.410Z,11.6
2023-05-24T05:10:50.748Z,11.6
2023-05-24T05:11:59.099Z,11.6
2023-05-24T05:13:07.649Z,15
2023-05-24T05:14:16.325Z,15
2023-05-24T05:15:24.670Z,15
2023-05-24T05:16:33.215Z,11.5
2023-05-24T05:17:41.588Z,11.5
2023-05-24T05:18:49.875Z,11.5
2023-05-24T05:19:58.452Z,14.2
2023-05-24T05:21:06.743Z,14.2
2023-05-24T05:22:15.100Z,14.2
2023-05-24T05:23:23.634Z,13.7
2023-05-24T05:24:31.988Z,13.7
2023-05-24T05:25:40.306Z,13.7
2023-05-24T05:26:48.862Z,13.2
2023-05-24T05:27:57.199Z,13.2
2023-05-24T05:29:05.543Z,13.2
2023-05-24T05:30:14.079Z,9.3
2023-05-24T05:31:22.445Z,9.3
2023-05-24T05:32:30.815Z,9.3
2023-05-24T05:33:39.444Z,12.8
2023-05-24T05:34:47.700Z,12.8
2023-05-24T05:35:56.062Z,12.8
2023-05-24T05:37:04.581Z,12.8
2023-05-24T05:38:12.897Z,12.8
2023-05-24T05:39:21.244Z,12.8
2023-05-24T05:40:29.790Z,13.5
2023-05-24T05:41:38.117Z,13.5
2023-05-24T05:42:46.453Z,13.5
2023-05-24T05:43:54.987Z,11.9
2023-05-24T05:45:03.390Z,11.9
2023-05-24T05:46:11.719Z,11.9
2023-05-24T05:47:20.234Z,10.9
2023-05-24T05:48:28.563Z,10.9
2023-05-24T05:49:36.918Z,10.9
2023-05-24T05:50:45.455Z,14.2
2023-05-24T05:51:53.815Z,14.2
2023-05-24T05:53:02.116Z,14.2
2023-05-24T05:54:10.653Z,15
2023-05-24T05:55:18.993Z,15
2023-05-24T05:56:27.319Z,15
2023-05-24T05:57:35.890Z,10.7
2023-05-24T05:58:44.214Z,10.7
2023-05-24T05:59:52.544Z,10.7
2023-05-24T06:01:01.089Z,13.1
2023-05-24T06:02:09.535Z,13.1
2023-05-24T06:03:17.878Z,13.1
2023-05-24T06:04:26.354Z,16.799999
2023-05-24T06:05:34.670Z,16.799999
2023-05-24T06:06:43.020Z,16.799999
2023-05-24T06:07:51.597Z,17.1
2023-05-24T06:08:59.952Z,17.1
2023-05-24T06:10:08.264Z,17.1
2023-05-24T06:11:16.811Z,14
2023-05-24T06:12:25.134Z,14
2023-05-24T06:13:33.479Z,14
2023-05-24T06:14:42.018Z,18.299999
2023-05-24T06:15:50.391Z,18.299999
2023-05-24T06:17:00.217Z,18.299999
2023-05-24T06:18:07.235Z,13.6
2023-05-24T06:19:15.602Z,13.6
2023-05-24T06:20:23.980Z,13.6
2023-05-24T06:21:32.501Z,12.5
2023-05-24T06:22:40.837Z,12.5
2023-05-24T06:23:49.201Z,12.5
2023-05-24T06:24:57.770Z,10.7
2023-05-24T06:26:06.084Z,10.7
2023-05-24T06:27:14.417Z,10.7
2023-05-24T06:28:22.962Z,17
2023-05-24T06:29:31.328Z,17
2023-05-24T06:30:39.748Z,17
2023-05-24T06:31:48.277Z,17.6
2023-05-24T06:32:56.560Z,17.6
2023-05-24T06:34:05.005Z,17.6
2023-05-24T06:35:13.425Z,11.7
2023-05-24T06:36:21.752Z,11.7
2023-05-24T06:37:30.093Z,11.7
2023-05-24T06:38:38.631Z,12.8
2023-05-24T06:39:47.017Z,12.8
2023-05-24T06:40:55.330Z,12.8
2023-05-24T06:42:03.859Z,11.8
2023-05-24T06:43:12.190Z,11.8
2023-05-24T06:44:21.111Z,11.8
2023-05-24T06:45:29.084Z,14.9
2023-05-24T06:46:37.447Z,14.9
2023-05-24T06:47:45.809Z,14.9
2023-05-24T06:48:54.424Z,13.2
2023-05-24T06:50:02.643Z,13.2
2023-05-24T06:51:10.988Z,13.2
2023-05-24T06:52:19.539Z,10.5
2023-05-24T06:53:27.922Z,10.5
2023-05-24T06:54:36.245Z,10.5
2023-05-24T06:55:44.895Z,17.1
2023-05-24T06:56:53.132Z,17.1
2023-05-24T06:58:01.481Z,17.1
2023-05-24T06:59:10.028Z,12.6
2023-05-24T07:00:18.405Z,12.6
2023-05-24T07:01:26.844Z,12.6
2023-05-24T07:02:35.317Z,11.6
2023-05-24T07:03:43.678Z,11.6
2023-05-24T07:04:51.960Z,11.6
2023-05-24T07:06:00.473Z,13.6
2023-05-24T07:07:08.822Z,13.6
2023-05-24T07:08:17.157Z,13.6
2023-05-24T07:09:25.697Z,11.5
2023-05-24T07:10:34.035Z,11.5
2023-05-24T07:11:42.479Z,11.5
2023-05-24T07:12:50.923Z,10.7
2023-05-24T07:13:59.271Z,10.7
2023-05-24T07:15:07.650Z,10.7
2023-05-24T07:16:16.255Z,12.7
2023-05-24T07:17:24.547Z,12.7
2023-05-24T07:18:32.878Z,12.7
2023-05-24T07:19:41.414Z,14
2023-05-24T07:20:49.810Z,14
2023-05-24T07:21:58.131Z,14
2023-05-24T07:23:06.673Z,12.2
2023-05-24T07:24:16.286Z,12.2
2023-05-24T07:25:23.377Z,12.2
2023-05-24T07:26:31.942Z,10.9
2023-05-24T07:27:40.308Z,10.9
2023-05-24T07:28:48.662Z,10.9
2023-05-24T07:29:57.195Z,10
2023-05-24T07:31:05.548Z,10
2023-05-24T07:32:13.905Z,10
2023-05-24T07:33:22.484Z,9.4
2023-05-24T07:34:30.751Z,9.4
2023-05-24T07:35:39.077Z,9.4
2023-05-24T07:36:47.630Z,9.5
2023-05-24T07:37:55.974Z,9.5
2023-05-24T07:39:04.322Z,9.5
2023-05-24T07:40:12.886Z,11.9
2023-05-24T07:41:21.235Z,11.9
2023-05-24T07:42:29.567Z,11.9
2023-05-24T07:43:38.157Z,10.9
2023-05-24T07:44:46.442Z,10.9
2023-05-24T07:45:54.809Z,10.9
2023-05-24T07:47:03.576Z,12.8
2023-05-24T07:48:11.966Z,12.8
2023-05-24T07:49:20.268Z,12.8
2023-05-24T07:50:28.802Z,9.4
2023-05-24T07:51:37.126Z,9.4
2023-05-24T07:52:45.471Z,9.4
2023-05-24T07:53:54.015Z,11
2023-05-24T07:55:02.362Z,11
2023-05-24T07:56:10.679Z,11
2023-05-24T07:57:19.224Z,11
2023-05-24T07:58:27.552Z,11
2023-05-24T07:59:36.009Z,11
2023-05-24T08:00:44.428Z,11
2023-05-24T08:01:52.801Z,11
2023-05-24T08:03:01.153Z,11
2023-05-24T08:04:09.692Z,13.6
2023-05-24T08:05:17.992Z,13.6
2023-05-24T08:06:26.315Z,13.6
2023-05-24T08:07:34.838Z,11.1
2023-05-24T08:08:43.198Z,11.1
2023-05-24T08:09:51.541Z,11.1
2023-05-24T08:11:00.105Z,9.2
2023-05-24T08:12:08.454Z,9.2
2023-05-24T08:13:16.771Z,9.2
2023-05-24T08:14:25.328Z,10
2023-05-24T08:15:33.741Z,10
2023-05-24T08:16:42.040Z,10
2023-05-24T08:17:50.587Z,8.2
2023-05-24T08:18:58.906Z,8.2
2023-05-24T08:20:07.298Z,8.2
2023-05-24T08:21:15.788Z,8.9
2023-05-24T08:22:24.118Z,8.9
2023-05-24T08:23:32.456Z,8.9
2023-05-24T08:24:40.985Z,9.5
2023-05-24T08:25:49.325Z,9.5
2023-05-24T08:26:57.671Z,9.5
2023-05-24T08:28:06.274Z,11.3
2023-05-24T08:29:14.554Z,11.3
2023-05-24T08:30:22.906Z,11.3
2023-05-24T08:31:31.650Z,11.1
2023-05-24T08:32:39.812Z,11.1
2023-05-24T08:33:48.111Z,11.1
2023-05-24T08:35:03.714Z,10.3
2023-05-24T08:36:05.012Z,10.3
2023-05-24T08:37:14.877Z,10.3
2023-05-24T08:38:21.892Z,8.6
2023-05-24T08:39:30.230Z,8.6
2023-05-24T08:40:38.597Z,8.6
2023-05-24T08:41:51.709Z,9.6
2023-05-24T08:42:55.486Z,9.6
2023-05-24T08:44:03.836Z,9.6
2023-05-24T08:45:12.412Z,7.7
2023-05-24T08:46:20.736Z,7.7
2023-05-24T08:47:29.160Z,7.7
2023-05-24T08:48:37.682Z,11.6
2023-05-24T08:49:45.955Z,11.6
2023-05-24T08:50:54.333Z,11.6
2023-05-24T08:52:02.888Z,12.1
2023-05-24T08:53:11.225Z,12.1
2023-05-24T08:54:19.571Z,12.1
2023-05-24T08:55:28.452Z,8.3
2023-05-24T08:56:36.477Z,8.3
2023-05-24T08:57:44.807Z,8.3
2023-05-24T08:58:53.351Z,10.2
2023-05-24T09:00:01.704Z,10.2
2023-05-24T09:01:10.066Z,10.2
2023-05-24T09:02:18.576Z,8.4
2023-05-24T09:03:27.133Z,8.4
2023-05-24T09:04:35.269Z,8.4
2023-05-24T09:05:43.924Z,8.3
2023-05-24T09:06:52.165Z,8.3
2023-05-24T09:08:00.483Z,8.3
2023-05-24T09:09:09.035Z,9.2
2023-05-24T09:10:17.374Z,9.2
2023-05-24T09:11:25.706Z,9.2
2023-05-24T09:12:37.800Z,13
2023-05-24T09:13:42.608Z,13
2023-05-24T09:14:50.950Z,13
2023-05-24T09:15:59.507Z,9.3
2023-05-24T09:17:07.851Z,9.3
2023-05-24T09:18:16.215Z,9.3
2023-05-24T09:19:24.797Z,8.2
2023-05-24T09:20:33.144Z,8.2
2023-05-24T09:21:41.475Z,8.2
2023-05-24T09:22:50.043Z,7
2023-05-24T09:23:58.398Z,7
2023-05-24T09:25:06.725Z,7
2023-05-24T09:26:15.272Z,9.4
2023-05-24T09:27:23.624Z,9.4
2023-05-24T09:28:31.979Z,9.4
2023-05-24T09:29:40.514Z,9.5
2023-05-24T09:30:48.848Z,9.5
2023-05-24T09:31:57.215Z,9.5
2023-05-24T09:33:05.812Z,10.7
2023-05-24T09:34:14.085Z,10.7
2023-05-24T09:35:22.465Z,10.7
2023-05-24T09:36:30.988Z,9.3
2023-05-24T09:37:39.325Z,9.3
2023-05-24T09:38:47.664Z,9.3
2023-05-24T09:39:56.232Z,11.6
2023-05-24T09:41:04.557Z,11.6
2023-05-24T09:42:12.907Z,11.6
2023-05-24T09:43:22.506Z,13.7
2023-05-24T09:44:29.798Z,13.7
2023-05-24T09:45:38.172Z,13.7
2023-05-24T09:46:46.748Z,10.6
2023-05-24T09:47:55.034Z,10.6
2023-05-24T09:49:03.372Z,10.6
2023-05-24T09:50:11.908Z,12.5
2023-05-24T09:51:20.285Z,12.5
2023-05-24T09:52:28.570Z,12.5
2023-05-24T09:53:37.139Z,9
2023-05-24T09:54:45.480Z,9
2023-05-24T09:55:53.852Z,9
2023-05-24T09:57:03.368Z,9.8
2023-05-24T09:58:10.767Z,9.8
2023-05-24T09:59:19.099Z,9.8
2023-05-24T10:00:27.650Z,11.7
2023-05-24T10:01:36.064Z,11.7
2023-05-24T10:02:52.636Z,11.7
2023-05-24T10:03:52.936Z,13.8
2023-05-24T10:05:01.402Z,13.8
2023-05-24T10:06:09.590Z,13.8
2023-05-24T10:07:18.177Z,8.2
2023-05-24T10:08:26.478Z,8.2
2023-05-24T10:09:34.815Z,8.2
2023-05-24T10:10:43.640Z,9.1
2023-05-24T10:11:51.692Z,9.1
2023-05-24T10:13:00.047Z,9.1
2023-05-24T10:14:08.593Z,8.7
2023-05-24T10:15:16.949Z,8.7
2023-05-24T10:16:25.297Z,8.7
2023-05-24T10:17:33.871Z,7.7
2023-05-24T10:18:42.184Z,7.7
2023-05-24T10:19:50.531Z,7.7
2023-05-24T10:20:59.299Z,9.1
2023-05-24T10:22:07.418Z,9.1
2023-05-24T10:23:15.825Z,9.1
2023-05-24T10:24:24.332Z,9.8
2023-05-24T10:25:32.664Z,9.8
2023-05-24T10:26:41.001Z,9.8
2023-05-24T10:27:49.533Z,9.9
2023-05-24T10:28:57.885Z,9.9
2023-05-24T10:30:08.678Z,9.9
2023-05-24T10:31:14.806Z,16.9
2023-05-24T10:32:23.121Z,16.9
2023-05-24T10:33:31.461Z,16.9
2023-05-24T10:34:40.016Z,11.5
2023-05-24T10:35:48.345Z,11.5
2023-05-24T10:36:56.668Z,11.5
2023-05-24T10:38:05.222Z,11.4
2023-05-24T10:39:13.580Z,11.4
2023-05-24T10:40:21.886Z,11.4
2023-05-24T10:41:30.430Z,8.7
2023-05-24T10:42:38.777Z,8.7
2023-05-24T10:43:57.020Z,8.7
2023-05-24T10:44:55.675Z,10.2
2023-05-24T10:46:04.027Z,10.2
2023-05-24T10:47:12.402Z,10.2
2023-05-24T10:48:20.912Z,8.7
2023-05-24T10:49:29.245Z,8.7
2023-05-24T10:50:37.627Z,8.7
2023-05-24T10:51:46.159Z,9.9
2023-05-24T10:52:54.522Z,9.9
2023-05-24T10:54:02.856Z,9.9
2023-05-24T10:55:11.457Z,11.4
2023-05-24T10:56:19.741Z,11.4
2023-05-24T10:57:28.082Z,11.4
2023-05-24T10:58:36.629Z,11.8
2023-05-24T10:59:45.100Z,11.8
2023-05-24T11:00:53.443Z,11.8
2023-05-24T11:02:02.009Z,9.5
2023-05-24T11:03:10.356Z,9.5
2023-05-24T11:04:18.657Z,9.5
2023-05-24T11:05:27.235Z,10.9
2023-05-24T11:06:35.562Z,10.9
2023-05-24T11:07:43.901Z,10.9
2023-05-24T11:08:52.444Z,10.8
2023-05-24T11:10:00.785Z,10.8
2023-05-24T11:11:22.867Z,10.8
2023-05-24T11:12:17.762Z,9.4
2023-05-24T11:13:26.040Z,9.4
2023-05-24T11:14:34.396Z,9.4
2023-05-24T11:15:42.949Z,9.7
2023-05-24T11:16:51.387Z,9.7
2023-05-24T11:17:59.661Z,9.7
2023-05-24T11:19:08.182Z,10
2023-05-24T11:20:16.611Z,10
2023-05-24T11:21:24.935Z,10
2023-05-24T11:22:33.491Z,9
2023-05-24T11:23:41.834Z,9
2023-05-24T11:24:50.196Z,9
2023-05-24T11:25:58.715Z,9.6
2023-05-24T11:27:07.099Z,9.6
2023-05-24T11:28:15.420Z,9.6
2023-05-24T11:29:23.957Z,12.7
2023-05-24T11:30:32.314Z,12.7
2023-05-24T11:31:43.312Z,12.7
2023-05-24T11:32:49.202Z,8.2
2023-05-24T11:33:57.541Z,8.2
2023-05-24T11:35:05.896Z,8.2
2023-05-24T11:36:14.460Z,9.2
2023-05-24T11:37:28.778Z,9.2
2023-05-24T11:38:31.728Z,9.2
2023-05-24T11:39:40.288Z,7.4
2023-05-24T11:40:48.630Z,7.4
2023-05-24T11:41:56.967Z,7.4
2023-05-24T11:43:05.544Z,11
2023-05-24T11:44:13.862Z,11
2023-05-24T11:45:22.216Z,11
2023-05-24T11:46:30.855Z,8.5
2023-05-24T11:47:39.129Z,8.5
2023-05-24T11:48:47.467Z,8.5
2023-05-24T11:49:56.014Z,8.9
2023-05-24T11:51:04.348Z,8.9
2023-05-24T11:52:12.672Z,8.9
2023-05-24T11:53:21.245Z,9.5
2023-05-24T11:54:29.596Z,9.5
2023-05-24T11:55:37.947Z,9.5
2023-05-24T11:56:46.504Z,8.2
2023-05-24T11:57:54.873Z,8.2
2023-05-24T11:59:03.260Z,8.2
2023-05-24T12:00:11.763Z,7
2023-05-24T12:01:20.121Z,7
2023-05-24T12:02:28.509Z,7
2023-05-24T12:03:37.140Z,8
2023-05-24T12:04:45.445Z,8
2023-05-24T12:05:53.900Z,8
2023-05-24T12:07:02.436Z,8.6
2023-05-24T12:08:12.460Z,8.6
2023-05-24T12:09:19.146Z,8.6
2023-05-24T12:10:27.685Z,8.4
2023-05-24T12:11:36.080Z,8.4
2023-05-24T12:12:46.148Z,8.4
2023-05-24T12:13:52.906Z,8.7
2023-05-24T12:15:01.310Z,8.7
2023-05-24T12:16:09.618Z,8.7
2023-05-24T12:17:18.164Z,10.7
2023-05-24T12:18:26.650Z,10.7
2023-05-24T12:19:36.090Z,10.7
2023-05-24T12:20:44.345Z,12.1
2023-05-24T12:21:54.110Z,12.1
2023-05-24T12:23:00.737Z,12.1
2023-05-24T12:24:09.285Z,10.3
2023-05-24T12:25:17.636Z,10.3
2023-05-24T12:26:25.978Z,10.3
2023-05-24T12:27:34.520Z,11.2
2023-05-24T12:28:42.865Z,11.2
2023-05-24T12:29:51.211Z,11.2
2023-05-24T12:30:59.833Z,7.6
2023-05-24T12:32:08.128Z,7.6
2023-05-24T12:33:16.475Z,7.6
2023-05-24T12:34:25.016Z,8.6
2023-05-24T12:35:33.354Z,8.6
2023-05-24T12:36:41.694Z,8.6
2023-05-24T12:37:50.233Z,7.6
2023-05-24T12:38:58.571Z,7.6
2023-05-24T12:40:06.909Z,7.6
2023-05-24T12:41:15.443Z,9.3
2023-05-24T12:42:23.771Z,9.3
2023-05-24T12:43:32.110Z,9.3
2023-05-24T12:44:40.704Z,8
2023-05-24T12:45:49.046Z,8
2023-05-24T12:46:57.426Z,8
2023-05-24T12:48:05.947Z,7.9
2023-05-24T12:49:14.273Z,7.9
2023-05-24T12:50:22.636Z,7.9
2023-05-24T12:51:31.171Z,8
2023-05-24T12:52:39.531Z,8
2023-05-24T12:53:47.915Z,8
2023-05-24T12:54:56.462Z,7
2023-05-24T12:56:04.826Z,7
2023-05-24T12:57:13.160Z,7
2023-05-24T12:58:21.706Z,8
2023-05-24T12:59:30.076Z,8
2023-05-24T13:00:38.431Z,8
2023-05-24T13:01:47.200Z,9.3
2023-05-24T13:02:55.406Z,9.3
2023-05-24T13:04:03.675Z,9.3
2023-05-24T13:05:12.232Z,8.3
2023-05-24T13:06:20.552Z,8.3
2023-05-24T13:07:28.890Z,8.3
2023-05-24T13:08:39.376Z,8.5
2023-05-24T13:09:46.059Z,8.5
2023-05-24T13:10:54.409Z,8.5
2023-05-24T13:12:02.982Z,9.7
2023-05-24T13:13:11.345Z,9.7
2023-05-24T13:14:19.777Z,9.7
2023-05-24T13:15:28.196Z,7.8
2023-05-24T13:16:36.564Z,7.8
2023-05-24T13:17:44.889Z,7.8
2023-05-24T13:18:53.471Z,8.4
2023-05-24T13:20:01.839Z,8.4
2023-05-24T13:21:12.316Z,8.4
2023-05-24T13:22:18.654Z,7.9
2023-05-24T13:23:27.006Z,7.9
2023-05-24T13:24:35.357Z,7.9
2023-05-24T13:25:43.884Z,9.3
2023-05-24T13:26:54.592Z,9.3
2023-05-24T13:28:00.547Z,9.3
2023-05-24T13:30:17.457Z,5.8
2023-05-24T13:31:25.843Z,5.8
2023-05-24T13:32:34.368Z,7.2
2023-05-24T13:33:42.695Z,7.2
2023-05-24T13:34:51.103Z,7.2
2023-05-24T13:35:59.576Z,8.8
2023-05-24T13:37:07.952Z,8.8
2023-05-24T13:38:16.284Z,8.8
2023-05-24T13:39:24.832Z,7.4
2023-05-24T13:40:33.198Z,7.4
2023-05-24T13:41:41.831Z,7.4
2023-05-24T13:42:50.075Z,8.6
2023-05-24T13:43:58.406Z,8.6
2023-05-24T13:45:06.731Z,8.6
2023-05-24T13:46:15.338Z,6.5
2023-05-24T13:47:31.696Z,6.5
2023-05-24T13:48:32.019Z,6.5
2023-05-24T13:49:40.526Z,10.3
2023-05-24T13:50:48.888Z,10.3
2023-05-24T13:51:58.535Z,10.3
2023-05-24T13:53:05.739Z,5.1
2023-05-24T13:54:14.075Z,5.1
2023-05-24T13:55:22.437Z,5.1
2023-05-24T13:56:30.972Z,8.1
2023-05-24T13:57:50.915Z,8.1
2023-05-24T13:58:47.640Z,8.1
2023-05-24T13:59:56.204Z,8.4
2023-05-24T14:01:04.569Z,8.4
2023-05-24T14:02:12.939Z,8.4
2023-05-24T14:03:21.429Z,5.8
2023-05-24T14:04:29.770Z,5.8
2023-05-24T14:05:38.196Z,5.8
2023-05-24T14:06:46.752Z,8.4
2023-05-24T14:07:55.142Z,8.4
2023-05-24T14:09:03.406Z,8.4
2023-05-24T14:10:11.982Z,7.4
2023-05-24T14:11:20.318Z,7.4
2023-05-24T14:12:28.658Z,7.4
2023-05-24T14:15:53.914Z,7.3
2023-05-24T14:17:02.498Z,8.3
2023-05-24T14:18:10.836Z,8.3
2023-05-24T14:19:19.145Z,8.3
2023-05-24T14:20:27.705Z,7.3
2023-05-24T14:21:36.048Z,7.3
2023-05-24T14:22:44.417Z,7.3
2023-05-24T14:23:52.935Z,7.2
2023-05-24T14:25:01.310Z,7.2
2023-05-24T14:26:09.647Z,7.2
2023-05-24T14:27:18.192Z,9.4
2023-05-24T14:28:26.554Z,9.4
2023-05-24T14:29:34.893Z,9.4
2023-05-24T14:30:43.446Z,8
2023-05-24T14:31:51.823Z,8
2023-05-24T14:33:00.233Z,8
2023-05-24T14:34:08.704Z,10
2023-05-24T14:35:17.033Z,10
2023-05-24T14:36:25.377Z,10
2023-05-24T14:37:33.953Z,7.3
2023-05-24T14:38:42.346Z,7.3
2023-05-24T14:39:50.674Z,7.3
2023-05-24T14:40:59.228Z,7.7
2023-05-24T14:42:07.578Z,7.7
2023-05-24T14:43:15.935Z,7.7
2023-05-24T14:44:24.517Z,6.9
2023-05-24T14:45:33.026Z,6.9
2023-05-24T14:46:41.261Z,6.9
2023-05-24T14:47:49.813Z,7
2023-05-24T14:48:58.167Z,7
2023-05-24T14:50:06.512Z,7
2023-05-24T14:51:15.103Z,9.2
2023-05-24T14:52:23.468Z,9.2
2023-05-24T14:53:31.803Z,9.2
2023-05-24T14:54:40.473Z,6.5
2023-05-24T14:55:48.733Z,6.5
2023-05-24T14:56:57.085Z,6.5
2023-05-24T14:58:05.623Z,8.5
2023-05-24T14:59:13.983Z,8.5
2023-05-24T15:00:23.224Z,8.5
2023-05-24T15:01:30.916Z,8.3
2023-05-24T15:02:39.384Z,8.3
2023-05-24T15:03:47.717Z,8.3
2023-05-24T15:04:56.191Z,8.1
2023-05-24T15:06:04.585Z,8.1
2023-05-24T15:07:12.882Z,8.1
2023-05-24T15:08:21.427Z,7.6
2023-05-24T15:09:29.754Z,7.6
2023-05-24T15:10:38.121Z,7.6
2023-05-24T15:11:46.656Z,11
2023-05-24T15:45:00.367Z,0
2023-05-24T15:46:08.670Z,0
2023-05-24T15:47:17.139Z,0
2023-05-24T15:48:25.527Z,12.4
2023-05-24T15:49:33.869Z,12.4
2023-05-24T15:52:59.130Z,11.6
2023-05-24T15:54:07.496Z,11.6
2023-05-24T15:55:16.126Z,11.1
2023-05-24T15:56:24.442Z,11.1
2023-05-24T15:57:32.790Z,11.1
2023-05-24T15:58:41.333Z,10.7
2023-05-24T15:59:49.671Z,10.7
2023-05-24T16:01:02.607Z,10.7
2023-05-24T16:02:11.028Z,9.3
2023-05-24T16:03:19.413Z,9.3
2023-05-24T16:04:27.698Z,9.3
2023-05-24T16:05:36.267Z,9.3
2023-05-24T16:06:44.600Z,9.3
2023-05-24T16:07:52.983Z,9.3